Shtandart — UAEM — position and weather

sailwx.info

Track history (hours):
 
Tides and Currents Weather Stations Pressure Air Temp Water Temp Dewpoint Dewpoint Depression Visibility Wind Speed Wind Dir Waves Ship Positions

Shtandart

Re-creation of early 1700's Russian naval frigate.

Last reported at 2018-Feb-16 15:58 UTC. Time now 2018-Feb-19 23:40 UTC.
Position N 41°13' E 004°38'.

Length 34 m; draft 3 m.

Type: Sailing vessel. MMSI: 273452840.

Date/timePositionNaut miles runAvg speedWind from/ knotsBaromVisibWave heightAir tempDewpointWater temp
2018-Feb-16 15:58N 41°13' E 004°38'8 4.7
2018-Feb-16 14:14N 41°13' E 004°27'20 5.5
2018-Feb-16 10:33N 41°14' E 004°00'0 6.0
2018-Feb-16 10:29N 41°14' E 003°60'32 5.8
2018-Feb-16 04:52N 41°12' E 003°17'2 5.8
2018-Feb-16 04:30N 41°12' E 003°14'3 6.3
2018-Feb-16 04:00N 41°13' E 003°10'3 6.2
2018-Feb-16 03:30N 41°13' E 003°06'3 5.6
2018-Feb-16 03:00N 41°13' E 003°02'3 5.5
2018-Feb-16 02:28N 41°12' E 002°58'3 5.5
2018-Feb-16 02:00N 41°12' E 002°55'3 5.4
2018-Feb-16 01:30N 41°12' E 002°51'10 5.8
2018-Feb-15 23:46N 41°12' E 002°38'2 5.9
2018-Feb-15 23:30N 41°12' E 002°36'3 5.9
2018-Feb-15 23:00N 41°12' E 002°32'3 6.1
2018-Feb-15 22:30N 41°12' E 002°28'3 6.4
2018-Feb-15 22:00N 41°12' E 002°23'3 6.3
2018-Feb-15 21:30N 41°12' E 002°19'3 5.6
2018-Feb-15 21:00N 41°11' E 002°16'3 5.4
2018-Feb-15 20:30N 41°11' E 002°12'3 5.3
2018-Feb-15 20:00N 41°11' E 002°09'3 5.0
2018-Feb-15 19:30N 41°11' E 002°05'3 5.1
2018-Feb-15 19:00N 41°10' E 002°02'3 5.2
2018-Feb-15 18:30N 41°10' E 001°58'3 5.3
2018-Feb-15 18:00N 41°10' E 001°55'2 4.7
2018-Feb-15 17:30N 41°10' E 001°52'2 4.2
2018-Feb-15 17:00N 41°10' E 001°49'2 4.3
2018-Feb-15 16:30N 41°09' E 001°46'2 4.3
2018-Feb-15 15:59N 41°09' E 001°43'2 4.6
2018-Feb-15 15:30N 41°08' E 001°40'2 4.9
2018-Feb-15 15:00N 41°08' E 001°37'  
Track history (hours):
 
Tides and Currents Weather Stations Pressure Air Temp Water Temp Dewpoint Dewpoint Depression Visibility Wind Speed Wind Dir Waves Ship Positions

Shtandart

Re-creation of early 1700's Russian naval frigate.

Last reported at 2018-Feb-16 15:58 UTC. Time now 2018-Feb-19 23:40 UTC.
Position N 41°13' E 004°38'.

Length 34 m; draft 3 m.

Type: Sailing vessel. MMSI: 273452840.

Date/timePositionNaut miles runAvg speedWind from/ knotsBaromVisibWave heightAir tempDewpointWater temp
2018-Feb-16 15:58N 41°13' E 004°38'8 4.7
2018-Feb-16 14:14N 41°13' E 004°27'20 5.5
2018-Feb-16 10:33N 41°14' E 004°00'0 6.0
2018-Feb-16 10:29N 41°14' E 003°60'32 5.8
2018-Feb-16 04:52N 41°12' E 003°17'2 5.8
2018-Feb-16 04:30N 41°12' E 003°14'3 6.3
2018-Feb-16 04:00N 41°13' E 003°10'3 6.2
2018-Feb-16 03:30N 41°13' E 003°06'3 5.6
2018-Feb-16 03:00N 41°13' E 003°02'3 5.5
2018-Feb-16 02:28N 41°12' E 002°58'3 5.5
2018-Feb-16 02:00N 41°12' E 002°55'3 5.4
2018-Feb-16 01:30N 41°12' E 002°51'10 5.8
2018-Feb-15 23:46N 41°12' E 002°38'2 5.9
2018-Feb-15 23:30N 41°12' E 002°36'3 5.9
2018-Feb-15 23:00N 41°12' E 002°32'3 6.1
2018-Feb-15 22:30N 41°12' E 002°28'3 6.4
2018-Feb-15 22:00N 41°12' E 002°23'3 6.3
2018-Feb-15 21:30N 41°12' E 002°19'3 5.6
2018-Feb-15 21:00N 41°11' E 002°16'3 5.4
2018-Feb-15 20:30N 41°11' E 002°12'3 5.3
2018-Feb-15 20:00N 41°11' E 002°09'3 5.0
2018-Feb-15 19:30N 41°11' E 002°05'3 5.1
2018-Feb-15 19:00N 41°10' E 002°02'3 5.2
2018-Feb-15 18:30N 41°10' E 001°58'3 5.3
2018-Feb-15 18:00N 41°10' E 001°55'2 4.7
2018-Feb-15 17:30N 41°10' E 001°52'2 4.2
2018-Feb-15 17:00N 41°10' E 001°49'2 4.3
2018-Feb-15 16:30N 41°09' E 001°46'2 4.3
2018-Feb-15 15:59N 41°09' E 001°43'2 4.6
2018-Feb-15 15:30N 41°08' E 001°40'2 4.9
2018-Feb-15 15:00N 41°08' E 001°37'  

Dump ship's entire track history